Riverdale, NE (68870)

10:38 AM CST on December 19, 2014 (GMT -0600)
Regency | Change Station
CLOSE
Current Station
Personal Weather Station
Location: Kearney, NE
Elevation: 2224 ft
Nearby Weather Stations
Active Advisory: Special Statement Active Notice: Public Information Statement

Elev 2224 ft 40.72 °N, 99.08 °W | Updated 3 seconds ago

Overcast
Overcast
24.7 °F
Feels Like 18 °F
N
5.5
Wind Variable Wind from SSW
Gusts 9.2 mph

Today
High -- | Low -- °F
--% Chance of Precip.
Yesterday
High -- | Low -- °F
Precip. -- in
7:56 AM 5:11 PM
Waning Crescent, 7% visible
Pressure 30.15 in
Visibility 0.5 miles
Clouds Overcast 200 ft
Windchill 18 °F
Dew Point 24 °F
Humidity 95%
Rainfall 0.00 in
Snow Depth Not available.
UV 0 out of 12
Pollen .10 out of 12
Air Quality Not available.
Flu Activity Not available.
METAR KEAR 191635Z 19006KT 1/2SM OVC002 M03/M04 A3015 RMK AO1

More Conditions Fewer Conditions

Pressure 30.15 in
Visibility 0.5 miles
Clouds Overcast 200 ft
Windchill 18 °F
Dew Point 24 °F
Humidity 95%
Rainfall 0.00 in
Snow Depth Not available.
UV 0 out of 12
Pollen .10 out of 12
Air Quality Not available.
Flu Activity Not available.
METAR KEAR 191635Z 19006KT 1/2SM OVC002 M03/M04 A3015 RMK AO1

More Conditions Fewer Conditions

10-Day Weather Forecast

Almanac

Astronomy

Dec. 19, 2014 Rise Set
Actual Time
Civil Twilight
Nautical Twilight
Astronomical Twilight
Moon
Length of Visible Light
Length of Day
Tomorrow will be .
, % of the Moon is Illuminated

Today's Extremes

State Highs State Lows

Community

WunderPhotos

Upload Photos

1,779,005 photos uploaded!

WunderBlogs® & News

Nearby

Air Quality

  Air Quality AQ Index Pollutant
Not available.

Snow Depth

Station Depth Elevation

Earthquake Activity

City Distance Mag. Time & Date
Minimum magnitude displayed is 2.5.

Coastal Water Temperatures

Place Temperature

Nearby Weather Stations